createdAt,value
2018-03-01T00:00:42.495Z,68.72
2018-03-01T00:02:35.428Z,68.53
2018-03-01T00:03:35.404Z,68.53
2018-03-01T00:05:28.308Z,68.63
2018-03-01T00:06:28.308Z,68.82
2018-03-01T00:08:21.729Z,68.72
2018-03-01T00:09:21.711Z,68.53
2018-03-01T00:11:15.110Z,68.25
2018-03-01T00:12:15.114Z,68.53
2018-03-01T00:14:08.542Z,68.06
2018-03-01T00:15:08.523Z,68.63
2018-03-01T00:17:01.963Z,68.53
2018-03-01T00:18:01.943Z,68.34
2018-03-01T00:19:54.849Z,68.15
2018-03-01T00:20:54.848Z,67.97
2018-03-01T00:22:47.770Z,68.91
2018-03-01T00:23:47.757Z,68.44
2018-03-01T00:25:41.156Z,68.53
2018-03-01T00:26:41.160Z,68.44
2018-03-01T00:28:34.084Z,68.15
2018-03-01T00:29:34.069Z,68.25
2018-03-01T00:31:26.972Z,68.53
2018-03-01T00:32:26.973Z,68.34
2018-03-01T00:34:19.903Z,68.44
2018-03-01T00:35:19.884Z,68.44
2018-03-01T00:37:12.788Z,68.53
2018-03-01T00:38:12.834Z,68.53
2018-03-01T00:40:06.223Z,68.25
2018-03-01T00:41:06.195Z,68.72
2018-03-01T00:42:59.145Z,68.53
2018-03-01T00:43:59.107Z,68.72
2018-03-01T00:45:52.511Z,68.44
2018-03-01T00:46:52.513Z,68.72
2018-03-01T00:48:45.444Z,68.72
2018-03-01T00:49:45.429Z,68.53
2018-03-01T00:51:38.330Z,68.34
2018-03-01T00:52:38.329Z,68.15
2018-03-01T00:54:31.271Z,68.44
2018-03-01T00:55:31.241Z,68.25
2018-03-01T00:57:24.161Z,68.15
2018-03-01T00:58:24.154Z,68.53
2018-03-01T01:00:17.082Z,68.15
2018-03-01T01:01:17.065Z,68.25
2018-03-01T01:03:09.980Z,68.53
2018-03-01T01:04:09.984Z,68.44
2018-03-01T01:06:02.912Z,68.82
2018-03-01T01:07:02.891Z,68.25
2018-03-01T01:08:55.816Z,68.53
2018-03-01T01:09:55.800Z,68.82
2018-03-01T01:11:48.707Z,68.91
2018-03-01T01:12:48.708Z,68.53
2018-03-01T01:14:41.640Z,69.00
2018-03-01T01:15:41.626Z,68.34
2018-03-01T01:17:34.545Z,68.15
2018-03-01T01:18:34.541Z,68.82
2018-03-01T01:20:27.470Z,68.15
2018-03-01T01:21:27.451Z,67.97
2018-03-01T01:23:20.362Z,68.72
2018-03-01T01:24:20.415Z,68.63
2018-03-01T01:26:13.286Z,68.91
2018-03-01T01:27:13.270Z,68.53
2018-03-01T01:29:06.180Z,68.15
2018-03-01T01:30:06.187Z,68.25
2018-03-01T01:31:59.109Z,68.53
2018-03-01T01:32:59.084Z,68.15
2018-03-01T01:34:52.015Z,68.63
2018-03-01T01:35:51.995Z,68.53
2018-03-01T01:37:44.908Z,68.91
2018-03-01T01:38:44.906Z,68.91
2018-03-01T01:40:37.832Z,68.82
2018-03-01T01:41:37.813Z,68.91
2018-03-01T01:43:30.731Z,68.44
2018-03-01T01:44:30.728Z,68.25
2018-03-01T01:46:23.660Z,67.97
2018-03-01T01:47:23.636Z,68.34
2018-03-01T01:49:16.548Z,67.97
2018-03-01T01:50:16.549Z,68.63
2018-03-01T01:52:09.466Z,68.25
2018-03-01T01:53:09.448Z,68.91
2018-03-01T01:55:02.371Z,68.06
2018-03-01T01:56:02.358Z,68.25
2018-03-01T01:57:55.262Z,68.82
2018-03-01T01:58:55.264Z,68.82
2018-03-01T02:00:48.190Z,68.91
2018-03-01T02:01:48.185Z,68.63
2018-03-01T02:03:41.080Z,68.72
2018-03-01T02:04:41.080Z,68.72
2018-03-01T02:06:34.014Z,68.72
2018-03-01T02:07:33.993Z,68.63
2018-03-01T02:09:26.908Z,69.29
2018-03-01T02:10:26.911Z,68.91
2018-03-01T02:12:19.830Z,69.29
2018-03-01T02:13:19.810Z,68.34
2018-03-01T02:15:12.721Z,68.72
2018-03-01T02:16:12.723Z,68.63
2018-03-01T02:18:05.654Z,68.63
2018-03-01T02:19:05.630Z,68.44
2018-03-01T02:20:58.613Z,68.06
2018-03-01T02:21:58.581Z,68.53
2018-03-01T02:23:51.460Z,68.72
2018-03-01T02:24:51.456Z,68.72
2018-03-01T02:26:44.392Z,68.72
2018-03-01T02:27:44.364Z,68.82
2018-03-01T02:29:37.270Z,68.63
2018-03-01T02:30:37.269Z,68.72
2018-03-01T02:32:30.197Z,68.53
2018-03-01T02:33:30.179Z,68.34
2018-03-01T02:35:23.091Z,68.44
2018-03-01T02:36:23.095Z,68.15
2018-03-01T02:38:16.016Z,68.15
2018-03-01T02:39:16.694Z,68.06
2018-03-01T02:41:08.919Z,68.34
2018-03-01T02:42:08.900Z,68.63
2018-03-01T02:44:01.814Z,68.63
2018-03-01T02:45:01.813Z,68.34
2018-03-01T02:46:54.750Z,68.82
2018-03-01T02:47:54.727Z,68.34
2018-03-01T02:49:47.641Z,68.53
2018-03-01T02:50:47.635Z,68.53
2018-03-01T02:52:40.562Z,69.10
2018-03-01T02:53:40.540Z,68.72
2018-03-01T02:55:33.457Z,69.19
2018-03-01T02:56:33.452Z,69.10
2018-03-01T02:58:26.395Z,69.00
2018-03-01T02:59:26.374Z,68.91
2018-03-01T03:01:19.323Z,68.25
2018-03-01T03:02:19.287Z,68.34
2018-03-01T03:04:12.191Z,68.53
2018-03-01T03:05:12.192Z,68.15
2018-03-01T03:07:05.119Z,69.29
2018-03-01T03:08:05.100Z,69.19
2018-03-01T03:09:58.003Z,68.53
2018-03-01T03:10:58.010Z,68.15
2018-03-01T03:12:50.933Z,68.34
2018-03-01T03:13:50.915Z,68.53
2018-03-01T03:15:43.831Z,68.25
2018-03-01T03:16:43.832Z,68.82
2018-03-01T03:18:36.764Z,68.44
2018-03-01T03:19:36.741Z,68.72
2018-03-01T03:21:29.651Z,68.34
2018-03-01T03:22:29.655Z,68.25
2018-03-01T03:24:22.597Z,68.06
2018-03-01T03:25:22.562Z,68.15
2018-03-01T03:27:15.989Z,68.91
2018-03-01T03:28:15.970Z,67.97
2018-03-01T03:30:08.877Z,68.53
2018-03-01T03:31:08.879Z,67.87
2018-03-01T03:33:01.813Z,67.78
2018-03-01T03:34:01.784Z,68.06
2018-03-01T03:35:54.695Z,68.15
2018-03-01T03:36:54.689Z,68.34
2018-03-01T03:38:47.613Z,68.15
2018-03-01T03:39:47.591Z,68.34
2018-03-01T03:41:40.498Z,68.34
2018-03-01T03:42:40.497Z,67.78
2018-03-01T03:44:33.922Z,68.44
2018-03-01T03:45:33.906Z,68.15
2018-03-01T03:47:27.357Z,68.25
2018-03-01T03:48:27.312Z,68.34
2018-03-01T03:50:20.217Z,68.44
2018-03-01T03:51:20.222Z,68.25
2018-03-01T03:53:13.159Z,68.25
2018-03-01T03:54:13.138Z,68.53
2018-03-01T03:56:06.046Z,67.78
2018-03-01T03:57:06.047Z,68.15
2018-03-01T03:58:58.967Z,67.97
2018-03-01T03:59:58.952Z,67.97
2018-03-01T04:01:51.857Z,67.97
2018-03-01T04:02:51.855Z,67.97
2018-03-01T04:04:44.783Z,67.68
2018-03-01T04:05:44.767Z,68.06
2018-03-01T04:07:37.664Z,67.68
2018-03-01T04:08:37.673Z,68.06
2018-03-01T04:10:30.598Z,68.34
2018-03-01T04:11:30.578Z,68.34
2018-03-01T04:13:23.516Z,68.34
2018-03-01T04:14:23.493Z,67.87
2018-03-01T04:16:16.410Z,67.87
2018-03-01T04:17:16.427Z,68.25
2018-03-01T04:19:09.350Z,68.15
2018-03-01T04:20:09.308Z,67.59
2018-03-01T04:22:02.227Z,67.30
2018-03-01T04:23:02.242Z,67.59
2018-03-01T04:24:55.159Z,67.30
2018-03-01T04:25:55.141Z,67.59
2018-03-01T04:27:48.056Z,67.49
2018-03-01T04:28:48.055Z,66.83
2018-03-01T04:30:40.976Z,66.83
2018-03-01T04:31:40.963Z,67.12
2018-03-01T04:33:33.900Z,67.02
2018-03-01T04:34:33.889Z,67.02
2018-03-01T04:36:26.793Z,66.83
2018-03-01T04:37:26.796Z,66.36
2018-03-01T04:39:19.720Z,66.55
2018-03-01T04:40:19.703Z,66.93
2018-03-01T04:42:12.613Z,66.36
2018-03-01T04:43:12.619Z,65.99
2018-03-01T04:45:05.549Z,66.17
2018-03-01T04:46:05.520Z,65.89
2018-03-01T04:47:58.433Z,66.27
2018-03-01T04:48:58.434Z,65.99
2018-03-01T04:50:51.384Z,65.61
2018-03-01T04:51:51.344Z,65.89
2018-03-01T04:53:44.260Z,65.70
2018-03-01T04:54:44.257Z,65.80
2018-03-01T04:56:37.210Z,66.27
2018-03-01T04:57:37.173Z,65.70
2018-03-01T04:59:30.111Z,65.80
2018-03-01T05:00:30.093Z,65.61
2018-03-01T05:02:22.993Z,65.52
2018-03-01T05:03:22.997Z,65.80
2018-03-01T05:05:15.920Z,65.70
2018-03-01T05:06:15.907Z,65.33
2018-03-01T05:08:08.807Z,65.89
2018-03-01T05:09:08.813Z,65.52
2018-03-01T05:11:01.764Z,65.80
2018-03-01T05:12:01.755Z,65.89
2018-03-01T05:13:54.624Z,65.61
2018-03-01T05:14:54.632Z,65.70
2018-03-01T05:16:47.559Z,65.61
2018-03-01T05:17:47.538Z,65.89
2018-03-01T05:19:40.485Z,65.14
2018-03-01T05:20:40.447Z,65.23
2018-03-01T05:22:33.351Z,65.33
2018-03-01T05:23:33.352Z,65.14
2018-03-01T05:25:26.279Z,65.61
2018-03-01T05:26:26.272Z,65.61
2018-03-01T05:28:19.162Z,65.33
2018-03-01T05:29:19.161Z,65.33
2018-03-01T05:31:12.087Z,65.14
2018-03-01T05:32:12.071Z,65.42
2018-03-01T05:34:04.972Z,65.23
2018-03-01T05:35:04.975Z,65.42
2018-03-01T05:36:57.900Z,65.14
2018-03-01T05:37:57.879Z,65.05
2018-03-01T05:39:50.795Z,64.86
2018-03-01T05:40:50.794Z,65.14
2018-03-01T05:42:43.722Z,65.70
2018-03-01T05:43:43.704Z,65.14
2018-03-01T05:45:36.627Z,65.05
2018-03-01T05:46:36.612Z,65.05
2018-03-01T05:48:29.524Z,65.05
2018-03-01T05:49:29.523Z,65.42
2018-03-01T05:51:22.456Z,65.23
2018-03-01T05:52:22.431Z,65.42
2018-03-01T05:54:16.332Z,65.33
2018-03-01T05:55:16.326Z,65.42
2018-03-01T05:57:09.262Z,65.14
2018-03-01T05:58:09.242Z,65.14
2018-03-01T06:00:02.159Z,65.14
2018-03-01T06:01:02.157Z,65.05
2018-03-01T06:02:55.080Z,65.14
2018-03-01T06:03:55.062Z,65.23
2018-03-01T06:05:48.004Z,65.05
2018-03-01T06:06:47.964Z,65.05
2018-03-01T06:08:40.871Z,65.23
2018-03-01T06:09:40.870Z,64.95
2018-03-01T06:11:33.797Z,64.76
2018-03-01T06:12:33.779Z,64.76
2018-03-01T06:14:26.690Z,65.14
2018-03-01T06:15:26.687Z,65.23
2018-03-01T06:17:19.625Z,65.23
2018-03-01T06:18:19.602Z,65.05
2018-03-01T06:19:19.613Z,64.67
2018-03-01T06:20:19.617Z,65.23
2018-03-01T06:21:19.625Z,65.05
2018-03-01T06:22:19.632Z,65.14
2018-03-01T06:23:19.641Z,65.33
2018-03-01T06:24:19.647Z,65.33
2018-03-01T06:25:19.651Z,65.89
2018-03-01T06:26:19.661Z,65.70
2018-03-01T06:27:19.666Z,65.52
2018-03-01T06:28:19.694Z,65.61
2018-03-01T06:29:19.682Z,65.61
2018-03-01T06:30:19.698Z,65.52
2018-03-01T06:31:19.697Z,65.61
2018-03-01T06:32:19.704Z,65.70
2018-03-01T06:33:19.714Z,65.61
2018-03-01T06:34:19.728Z,65.42
2018-03-01T06:35:19.725Z,65.61
2018-03-01T06:36:19.734Z,65.89
2018-03-01T06:37:19.751Z,65.70
2018-03-01T06:38:19.750Z,66.08
2018-03-01T06:39:19.758Z,66.17
2018-03-01T06:40:19.765Z,66.17
2018-03-01T06:41:19.774Z,66.08
2018-03-01T06:42:19.780Z,65.70
2018-03-01T06:43:19.789Z,65.70
2018-03-01T06:44:19.791Z,65.61
2018-03-01T06:45:19.802Z,65.52
2018-03-01T06:46:19.808Z,65.70
2018-03-01T06:47:19.820Z,65.52
2018-03-01T06:48:19.822Z,65.52
2018-03-01T06:49:19.829Z,65.52
2018-03-01T06:50:19.840Z,65.80
2018-03-01T06:51:19.847Z,65.52
2018-03-01T06:52:19.859Z,65.23
2018-03-01T06:53:19.860Z,65.14
2018-03-01T06:54:19.865Z,65.14
2018-03-01T06:55:19.874Z,65.05
2018-03-01T06:56:19.884Z,65.33
2018-03-01T06:57:19.952Z,65.33
2018-03-01T06:58:19.903Z,65.23
2018-03-01T06:59:19.907Z,65.05
2018-03-01T07:00:19.910Z,65.33
2018-03-01T07:01:19.962Z,65.33
2018-03-01T07:02:19.933Z,65.33
2018-03-01T07:03:19.928Z,65.45
2018-03-01T07:04:19.940Z,65.23
2018-03-01T07:05:19.949Z,65.45
2018-03-01T07:06:19.957Z,64.79
2018-03-01T07:07:19.972Z,64.51
2018-03-01T07:08:20.074Z,64.70
2018-03-01T07:09:20.041Z,64.32
2018-03-01T07:10:20.900Z,64.42
2018-03-01T07:11:20.151Z,64.23
2018-03-01T07:12:20.118Z,64.32
2018-03-01T07:13:20.012Z,64.42
2018-03-01T07:14:20.025Z,64.32
2018-03-01T07:15:20.024Z,64.42
2018-03-01T07:16:20.031Z,64.51
2018-03-01T07:17:20.046Z,64.32
2018-03-01T07:18:20.056Z,64.04
2018-03-01T07:19:20.063Z,64.14
2018-03-01T07:20:20.066Z,63.76
2018-03-01T07:21:20.081Z,64.04
2018-03-01T07:22:20.103Z,63.29
2018-03-01T07:23:20.086Z,64.23
2018-03-01T07:24:20.101Z,63.47
2018-03-01T07:25:20.105Z,63.66
2018-03-01T07:26:20.109Z,63.85
2018-03-01T07:27:20.120Z,63.85
2018-03-01T07:28:20.124Z,63.57
2018-03-01T07:29:20.139Z,63.00
2018-03-01T07:30:20.153Z,63.38
2018-03-01T07:31:20.322Z,63.38
2018-03-01T07:32:20.151Z,63.38
2018-03-01T07:33:20.162Z,62.91
2018-03-01T07:34:20.437Z,63.10
2018-03-01T07:35:20.486Z,63.29
2018-03-01T07:36:20.215Z,63.00
2018-03-01T07:37:20.198Z,62.62
2018-03-01T07:38:20.215Z,62.91
2018-03-01T07:39:20.212Z,62.53
2018-03-01T07:40:20.255Z,62.72
2018-03-01T07:41:20.229Z,62.43
2018-03-01T07:42:20.248Z,62.43
2018-03-01T07:43:20.244Z,62.43
2018-03-01T07:44:20.289Z,62.43
2018-03-01T07:45:20.254Z,62.62
2018-03-01T07:46:20.288Z,62.43
2018-03-01T07:47:20.274Z,62.43
2018-03-01T07:48:20.285Z,62.53
2018-03-01T07:49:20.298Z,62.53
2018-03-01T07:50:20.307Z,62.53
2018-03-01T07:51:20.312Z,62.53
2018-03-01T07:52:20.312Z,62.72
2018-03-01T07:53:20.320Z,61.96
2018-03-01T07:54:20.327Z,61.87
2018-03-01T07:55:20.339Z,62.06
2018-03-01T07:56:20.369Z,62.15
2018-03-01T07:57:20.377Z,61.68
2018-03-01T07:58:20.467Z,61.40
2018-03-01T07:59:20.371Z,60.83
2018-03-01T08:00:20.424Z,60.93
2018-03-01T08:01:20.388Z,61.02
2018-03-01T08:02:20.407Z,61.21
2018-03-01T08:03:20.408Z,60.83
2018-03-01T08:04:20.429Z,60.46
2018-03-01T08:05:20.419Z,60.17
2018-03-01T08:06:20.438Z,60.36
2018-03-01T08:07:20.450Z,60.36
2018-03-01T08:08:20.454Z,60.17
2018-03-01T08:09:20.457Z,60.64
2018-03-01T08:10:20.467Z,60.64
2018-03-01T08:11:20.507Z,60.27
2018-03-01T08:12:20.482Z,60.17
2018-03-01T08:13:20.489Z,60.08
2018-03-01T08:14:20.497Z,60.08
2018-03-01T08:15:20.523Z,59.99
2018-03-01T08:16:20.513Z,60.08
2018-03-01T08:17:20.527Z,59.33
2018-03-01T08:18:20.538Z,59.61
2018-03-01T08:19:20.540Z,59.99
2018-03-01T08:20:20.551Z,60.08
2018-03-01T08:21:20.559Z,59.73
2018-03-01T08:22:20.564Z,59.83
2018-03-01T08:23:20.576Z,60.11
2018-03-01T08:24:20.581Z,60.11
2018-03-01T08:25:20.613Z,60.30
2018-03-01T08:26:20.617Z,59.83
2018-03-01T08:27:20.658Z,59.64
2018-03-01T08:28:20.636Z,59.64
2018-03-01T08:29:20.721Z,59.83
2018-03-01T08:30:20.639Z,59.35
2018-03-01T08:31:20.649Z,59.26
2018-03-01T08:32:20.665Z,59.35
2018-03-01T08:33:20.686Z,59.45
2018-03-01T08:34:20.709Z,59.17
2018-03-01T08:35:20.698Z,59.07
2018-03-01T08:36:20.701Z,59.17
2018-03-01T08:37:20.704Z,59.45
2018-03-01T08:38:20.733Z,59.07
2018-03-01T08:39:20.792Z,59.26
2018-03-01T08:40:20.752Z,58.98
2018-03-01T08:41:20.770Z,59.35
2018-03-01T08:42:20.780Z,59.45
2018-03-01T08:43:20.858Z,58.88
2018-03-01T08:44:20.786Z,59.07
2018-03-01T08:45:20.865Z,59.17
2018-03-01T08:46:20.801Z,59.07
2018-03-01T08:47:20.869Z,58.79
2018-03-01T08:48:20.866Z,58.69
2018-03-01T08:49:21.297Z,59.07
2018-03-01T08:50:20.814Z,58.88
2018-03-01T08:51:20.872Z,58.60
2018-03-01T08:52:20.901Z,58.50
2018-03-01T08:53:20.848Z,57.94
2018-03-01T08:54:21.032Z,57.84
2018-03-01T08:55:20.869Z,57.28
2018-03-01T08:56:20.876Z,57.28
2018-03-01T08:57:20.886Z,57.37
2018-03-01T08:58:20.893Z,57.37
2018-03-01T08:59:20.905Z,57.09
2018-03-01T09:00:22.004Z,56.99
2018-03-01T09:01:21.057Z,56.99
2018-03-01T09:02:20.957Z,57.28
2018-03-01T09:03:20.940Z,56.71
2018-03-01T09:04:21.031Z,56.52
2018-03-01T09:05:21.007Z,56.24
2018-03-01T09:06:21.014Z,56.34
2018-03-01T09:07:20.982Z,56.34
2018-03-01T09:08:21.055Z,56.52
2018-03-01T09:09:21.000Z,56.05
2018-03-01T09:10:20.995Z,56.15
2018-03-01T09:11:21.008Z,56.24
2018-03-01T09:12:21.017Z,56.15
2018-03-01T09:13:21.040Z,56.05
2018-03-01T09:14:21.041Z,56.43
2018-03-01T09:15:21.173Z,56.34
2018-03-01T09:16:21.351Z,56.24
2018-03-01T09:17:21.092Z,56.52
2018-03-01T09:18:21.081Z,56.15
2018-03-01T09:19:21.111Z,56.43
2018-03-01T09:20:21.107Z,55.77
2018-03-01T09:21:21.272Z,56.05
2018-03-01T09:22:21.110Z,55.96
2018-03-01T09:23:21.120Z,55.67
2018-03-01T09:24:21.133Z,55.49
2018-03-01T09:25:21.151Z,55.58
2018-03-01T09:26:21.151Z,55.49
2018-03-01T09:27:22.127Z,55.39
2018-03-01T09:28:21.171Z,55.11
2018-03-01T09:29:21.179Z,55.11
2018-03-01T09:30:21.202Z,55.20
2018-03-01T09:31:21.192Z,55.39
2018-03-01T09:32:21.200Z,55.23
2018-03-01T09:33:21.237Z,55.13
2018-03-01T09:34:21.218Z,55.13
2018-03-01T09:35:21.250Z,54.57
2018-03-01T09:36:21.242Z,54.75
2018-03-01T09:37:21.256Z,54.66
2018-03-01T09:38:21.268Z,54.47
2018-03-01T09:39:21.286Z,54.38
2018-03-01T09:40:21.276Z,54.19
2018-03-01T09:41:21.296Z,54.10
2018-03-01T09:42:21.306Z,53.81
2018-03-01T09:43:21.337Z,53.72
2018-03-01T09:44:21.321Z,53.81
2018-03-01T09:45:21.346Z,53.34
2018-03-01T09:46:21.332Z,53.06
2018-03-01T09:47:21.350Z,53.06
2018-03-01T09:48:21.366Z,53.25
2018-03-01T09:49:21.388Z,53.15
2018-03-01T09:50:21.405Z,53.06
2018-03-01T09:51:21.521Z,52.59
2018-03-01T09:52:21.469Z,52.78
2018-03-01T09:53:21.413Z,51.92
2018-03-01T09:54:21.413Z,52.02
2018-03-01T09:55:21.431Z,51.92
2018-03-01T09:56:21.442Z,51.54
2018-03-01T09:57:21.467Z,51.83
2018-03-01T09:58:37.596Z,50.82
2018-03-01T09:59:37.577Z,51.20
2018-03-01T10:01:30.513Z,50.63
2018-03-01T10:02:30.515Z,50.16
2018-03-01T10:04:23.615Z,48.74
2018-03-01T10:05:23.587Z,49.11
2018-03-01T10:07:16.543Z,48.65
2018-03-01T10:08:16.509Z,48.18
2018-03-01T10:10:09.438Z,47.23
2018-03-01T10:11:09.422Z,47.23
2018-03-01T10:13:02.361Z,46.47
2018-03-01T10:14:02.359Z,46.47
2018-03-01T10:15:55.265Z,46.47
2018-03-01T10:16:55.272Z,46.50
2018-03-01T10:18:48.201Z,46.50
2018-03-01T10:19:48.188Z,46.19
2018-03-01T10:21:41.109Z,46.02
2018-03-01T10:22:41.097Z,46.31
2018-03-01T10:24:34.038Z,46.02
2018-03-01T10:25:34.024Z,45.93
2018-03-01T10:27:27.054Z,45.08
2018-03-01T10:28:26.933Z,46.02
2018-03-01T10:30:19.903Z,45.27
2018-03-01T10:31:19.912Z,44.79
2018-03-01T10:33:12.787Z,44.70
2018-03-01T10:34:12.776Z,44.70
2018-03-01T10:36:05.685Z,44.04
2018-03-01T10:37:05.707Z,44.23
2018-03-01T10:38:58.629Z,44.23
2018-03-01T10:39:58.614Z,44.32
2018-03-01T10:41:51.550Z,44.70
2018-03-01T10:42:51.539Z,45.45
2018-03-01T10:44:44.472Z,46.78
2018-03-01T10:45:44.456Z,46.88
2018-03-01T10:47:37.374Z,47.16
2018-03-01T10:48:37.384Z,47.25
2018-03-01T10:50:30.324Z,47.25
2018-03-01T10:51:30.316Z,47.44
2018-03-01T10:53:23.244Z,46.59
2018-03-01T10:54:23.245Z,46.50
2018-03-01T10:56:16.173Z,45.93
2018-03-01T10:57:16.175Z,46.50
2018-03-01T10:59:09.582Z,46.12
2018-03-01T11:00:09.582Z,46.02
2018-03-01T11:02:02.482Z,45.83
2018-03-01T11:03:02.492Z,46.31
2018-03-01T11:04:55.432Z,46.40
2018-03-01T11:05:55.410Z,45.93
2018-03-01T11:07:48.334Z,45.83
2018-03-01T11:08:48.366Z,45.74
2018-03-01T11:10:41.261Z,45.93
2018-03-01T11:11:41.246Z,46.21
2018-03-01T11:13:34.178Z,46.40
2018-03-01T11:14:34.168Z,46.40
2018-03-01T11:16:27.079Z,46.12
2018-03-01T11:17:27.088Z,46.04
2018-03-01T11:19:20.053Z,45.39
2018-03-01T11:20:20.000Z,45.55
2018-03-01T11:22:12.916Z,45.93
2018-03-01T11:23:13.205Z,45.27
2018-03-01T11:25:05.855Z,45.83
2018-03-01T11:26:05.844Z,45.64
2018-03-01T11:27:58.779Z,45.17
2018-03-01T11:28:58.772Z,44.79
2018-03-01T11:30:51.703Z,44.72
2018-03-01T11:31:51.689Z,44.42
2018-03-01T11:33:44.627Z,45.10
2018-03-01T11:34:44.619Z,44.91
2018-03-01T11:36:37.531Z,44.91
2018-03-01T11:37:37.590Z,44.15
2018-03-01T11:39:30.493Z,41.91
2018-03-01T11:40:30.557Z,41.34
2018-03-01T11:42:24.036Z,40.20
2018-03-01T11:43:23.908Z,40.30
2018-03-01T11:44:23.984Z,39.83
2018-03-01T11:45:24.053Z,39.64
2018-03-01T11:46:24.235Z,39.26
2018-03-01T11:47:24.027Z,39.36
2018-03-01T11:48:24.264Z,39.17
2018-03-01T11:49:23.984Z,39.26
2018-03-01T11:50:24.034Z,38.98
2018-03-01T11:51:23.973Z,39.54
2018-03-01T11:52:24.063Z,40.11
2018-03-01T11:53:24.026Z,40.30
2018-03-01T11:54:24.208Z,39.54
2018-03-01T11:55:24.209Z,38.79
2018-03-01T11:56:24.093Z,38.50
2018-03-01T11:57:24.395Z,38.60
2018-03-01T11:58:24.133Z,38.60
2018-03-01T11:59:24.250Z,38.69
2018-03-01T12:00:24.113Z,38.79
2018-03-01T12:01:25.131Z,39.83
2018-03-01T12:02:25.172Z,40.39
2018-03-01T12:03:24.163Z,40.20
2018-03-01T12:04:24.221Z,40.30
2018-03-01T12:05:24.312Z,40.68
2018-03-01T12:06:24.290Z,40.58
2018-03-01T12:07:24.324Z,40.11
2018-03-01T12:08:24.272Z,40.58
2018-03-01T12:09:24.203Z,40.77
2018-03-01T12:10:24.257Z,40.87
2018-03-01T12:11:24.275Z,40.96
2018-03-01T12:12:24.223Z,41.34
2018-03-01T12:13:24.235Z,40.96
2018-03-01T12:14:24.256Z,40.77
2018-03-01T12:15:24.260Z,40.58
2018-03-01T12:16:24.279Z,40.87
2018-03-01T12:17:24.288Z,41.15
2018-03-01T12:18:24.307Z,40.77
2018-03-01T12:19:24.309Z,40.77
2018-03-01T12:20:24.324Z,41.15
2018-03-01T12:21:24.455Z,41.06
2018-03-01T12:22:24.348Z,40.68
2018-03-01T12:23:24.367Z,40.68
2018-03-01T12:24:24.520Z,40.58
2018-03-01T12:25:24.383Z,40.58
2018-03-01T12:26:24.401Z,40.68
2018-03-01T12:27:24.418Z,40.30
2018-03-01T12:28:24.457Z,40.49
2018-03-01T12:29:24.441Z,40.58
2018-03-01T12:30:24.460Z,40.20
2018-03-01T12:31:24.481Z,40.30
2018-03-01T12:32:24.487Z,40.30
2018-03-01T12:33:24.500Z,40.30
2018-03-01T12:34:24.506Z,40.30
2018-03-01T12:35:24.517Z,40.30
2018-03-01T12:36:24.539Z,40.39
2018-03-01T12:37:24.626Z,40.11
2018-03-01T12:38:24.567Z,40.30
2018-03-01T12:39:24.571Z,40.32
2018-03-01T12:40:24.583Z,39.84
2018-03-01T12:41:24.603Z,39.83
2018-03-01T12:42:24.611Z,39.83
2018-03-01T12:43:24.632Z,39.54
2018-03-01T12:44:24.772Z,40.30
2018-03-01T12:45:24.655Z,40.32
2018-03-01T12:46:24.660Z,40.41
2018-03-01T12:47:24.673Z,40.22
2018-03-01T12:48:24.690Z,39.56
2018-03-01T12:49:24.699Z,39.65
2018-03-01T12:50:24.715Z,39.65
2018-03-01T12:51:24.730Z,39.64
2018-03-01T12:52:24.773Z,39.65
2018-03-01T12:53:24.769Z,39.26
2018-03-01T12:54:24.941Z,39.54
2018-03-01T12:55:24.776Z,39.73
2018-03-01T12:56:24.797Z,40.32
2018-03-01T12:57:24.804Z,40.22
2018-03-01T12:58:24.822Z,39.84
2018-03-01T12:59:24.837Z,39.94
2018-03-01T13:00:24.851Z,39.73
2018-03-01T13:01:24.867Z,39.73
2018-03-01T13:02:24.879Z,39.64
2018-03-01T13:03:24.897Z,39.83
2018-03-01T13:04:24.902Z,39.36
2018-03-01T13:05:24.910Z,39.54
2018-03-01T13:06:24.934Z,39.26
2018-03-01T13:07:24.937Z,39.75
2018-03-01T13:08:24.957Z,39.56
2018-03-01T13:09:24.975Z,39.18
2018-03-01T13:10:25.044Z,39.28
2018-03-01T13:11:24.996Z,39.65
2018-03-01T13:12:25.013Z,39.65
2018-03-01T13:13:25.015Z,39.75
2018-03-01T13:14:25.035Z,39.28
2018-03-01T13:15:25.040Z,39.37
2018-03-01T13:16:25.063Z,39.37
2018-03-01T13:17:25.077Z,39.37
2018-03-01T13:18:25.087Z,39.37
2018-03-01T13:19:25.100Z,39.75
2018-03-01T13:20:25.114Z,39.37
2018-03-01T13:21:25.130Z,39.09
2018-03-01T13:22:25.141Z,39.09
2018-03-01T13:23:25.144Z,39.18
2018-03-01T13:24:25.160Z,39.56
2018-03-01T13:25:25.176Z,39.56
2018-03-01T13:26:25.186Z,39.00
2018-03-01T13:27:25.246Z,39.47
2018-03-01T13:28:25.222Z,39.56
2018-03-01T13:29:25.234Z,39.47
2018-03-01T13:30:25.240Z,39.37
2018-03-01T13:31:25.250Z,39.37
2018-03-01T13:32:25.276Z,39.37
2018-03-01T13:33:25.282Z,39.37
2018-03-01T13:34:25.295Z,39.09
2018-03-01T13:35:25.304Z,39.18
2018-03-01T13:36:25.331Z,39.00
2018-03-01T13:37:25.335Z,38.90
2018-03-01T13:38:25.343Z,38.62
2018-03-01T13:39:25.368Z,38.62
2018-03-01T13:40:25.396Z,38.52
2018-03-01T13:41:25.385Z,38.71
2018-03-01T13:42:25.402Z,38.62
2018-03-01T13:43:25.410Z,38.43
2018-03-01T13:44:25.443Z,38.43
2018-03-01T13:45:25.452Z,38.52
2018-03-01T13:46:25.464Z,38.52
2018-03-01T13:47:25.471Z,38.33
2018-03-01T13:48:25.481Z,38.43
2018-03-01T13:49:25.567Z,38.33
2018-03-01T13:50:25.504Z,38.62
2018-03-01T13:51:25.523Z,38.52
2018-03-01T13:52:25.542Z,38.62
2018-03-01T13:53:25.538Z,38.71
2018-03-01T13:54:25.567Z,38.71
2018-03-01T13:55:25.573Z,38.43
2018-03-01T13:56:25.581Z,38.33
2018-03-01T13:57:25.601Z,38.52
2018-03-01T13:58:25.618Z,38.52
2018-03-01T13:59:25.620Z,38.62
2018-03-01T14:00:25.638Z,39.09
2018-03-01T14:01:25.665Z,38.62
2018-03-01T14:02:25.673Z,38.71
2018-03-01T14:03:25.681Z,38.81
2018-03-01T14:04:25.720Z,39.47
2018-03-01T14:05:25.799Z,39.65
2018-03-01T14:06:25.746Z,39.94
2018-03-01T14:07:25.729Z,39.64
2018-03-01T14:08:25.736Z,39.84
2018-03-01T14:09:25.755Z,39.83
2018-03-01T14:10:25.769Z,39.73
2018-03-01T14:11:25.774Z,40.22
2018-03-01T14:12:25.797Z,40.41
2018-03-01T14:13:25.801Z,40.13
2018-03-01T14:14:25.824Z,40.22
2018-03-01T14:15:25.827Z,40.22
2018-03-01T14:16:25.849Z,40.13
2018-03-01T14:17:25.859Z,39.94
2018-03-01T14:18:25.887Z,39.83
2018-03-01T14:19:25.889Z,40.22
2018-03-01T14:20:25.890Z,40.32
2018-03-01T14:21:25.909Z,40.13
2018-03-01T14:22:26.033Z,40.22
2018-03-01T14:23:25.937Z,40.32
2018-03-01T14:24:25.947Z,40.22
2018-03-01T14:25:25.953Z,40.32
2018-03-01T14:26:25.968Z,40.22
2018-03-01T14:27:25.980Z,40.03
2018-03-01T14:28:25.996Z,39.94
2018-03-01T14:29:26.006Z,40.32
2018-03-01T14:30:26.018Z,40.32
2018-03-01T14:31:26.041Z,40.41
2018-03-01T14:32:26.049Z,39.73
2018-03-01T14:33:26.056Z,39.54
2018-03-01T14:34:26.074Z,39.92
2018-03-01T14:35:26.092Z,40.11
2018-03-01T14:36:26.100Z,39.92
2018-03-01T14:37:26.106Z,40.01
2018-03-01T14:38:26.132Z,40.30
2018-03-01T14:39:26.137Z,40.11
2018-03-01T14:40:26.155Z,40.30
2018-03-01T14:41:26.163Z,40.20
2018-03-01T14:42:26.175Z,40.01
2018-03-01T14:43:26.190Z,40.20
2018-03-01T14:44:26.243Z,40.20
2018-03-01T14:45:26.222Z,39.92
2018-03-01T14:46:26.257Z,40.20
2018-03-01T14:47:26.266Z,39.54
2018-03-01T14:48:26.253Z,39.73
2018-03-01T14:49:26.304Z,39.73
2018-03-01T14:50:26.272Z,39.92
2018-03-01T14:51:26.286Z,39.64
2018-03-01T14:52:26.306Z,39.83
2018-03-01T14:53:26.313Z,39.64
2018-03-01T14:54:26.324Z,39.92
2018-03-01T14:55:26.347Z,40.20
2018-03-01T14:56:26.352Z,39.92
2018-03-01T14:57:26.364Z,40.30
2018-03-01T14:58:26.377Z,40.11
2018-03-01T14:59:26.387Z,40.20
2018-03-01T15:00:26.413Z,40.11
2018-03-01T15:01:26.420Z,40.39
2018-03-01T15:02:26.427Z,40.39
2018-03-01T15:03:26.446Z,40.11
2018-03-01T15:04:26.450Z,40.11
2018-03-01T15:05:26.463Z,40.58
2018-03-01T15:06:26.480Z,40.68
2018-03-01T15:07:26.494Z,40.68
2018-03-01T15:08:26.500Z,40.68
2018-03-01T15:09:26.522Z,40.96
2018-03-01T15:10:26.549Z,41.15
2018-03-01T15:11:26.543Z,40.96
2018-03-01T15:12:26.551Z,41.44
2018-03-01T15:13:26.570Z,40.77
2018-03-01T15:14:26.579Z,40.58
2018-03-01T15:15:26.601Z,40.58
2018-03-01T15:16:26.605Z,41.25
2018-03-01T15:17:26.615Z,41.34
2018-03-01T15:18:26.624Z,41.15
2018-03-01T15:19:26.640Z,41.15
2018-03-01T15:20:26.662Z,41.25